»·PEaware :: N172SP KSNA-KSNA

N172SP :: KSNA-KSNA

FLIGHT INFORMATION

Flight Status: Arrived
Operator: Privately registered:
United States
More flights under this callsign
Pilot: Michael S. (15761)
Aircraft: CESSNA 172 SKYHAWK
(C172)
More flights by this aircraft type
Origin: KSNA John Wayne-Orange Co
United States
Destination: KSNA John Wayne-Orange Co
United States
More flights between these airports :: More routes between these airports
Route: +SLI
File this flight plan on PilotEdge
Remarks:
Altitude:
(Current/Filed)
3,000ft
Speed:
(Current/Filed)
110kts
Departed: 07-Nov-18 03:37 PM
Arrived: 07-Nov-18 04:12 PM
Distance/Time
Traveled:
1nm/0:35
Distance/Time
To Go:
Arrived

Flight Plot

Page will automatically refresh every two minutes.


Map Options




Map Legend


Flown Route
Filed Route
Departure Airport
Arrival Airport
Navaid (VOR, NDB)
Fix

Horizontal Profiles

Position Reports

Time Latitude Longitude Heading Altitude Ground
Speed
07-Nov-18 15:25 33.671975 -117.867499 206 60ft 0kts
07-Nov-18 15:26 33.671975 -117.867499 206 60ft 0kts
07-Nov-18 15:27 33.671975 -117.867499 206 60ft 0kts
07-Nov-18 15:28 33.671975 -117.867499 206 60ft 0kts
07-Nov-18 15:29 33.671975 -117.867499 206 60ft 0kts
07-Nov-18 15:30 33.671975 -117.867499 206 60ft 0kts
07-Nov-18 15:31 33.671975 -117.867499 206 60ft 0kts
07-Nov-18 15:32 33.671975 -117.867499 206 60ft 0kts
07-Nov-18 15:33 33.671975 -117.867499 206 60ft 0kts
07-Nov-18 15:34 33.672737 -117.867660 34 60ft 11kts
07-Nov-18 15:35 33.675612 -117.866138 28 60ft 22kts
07-Nov-18 15:36 33.679870 -117.863568 336 60ft 0kts
07-Nov-18 15:37 33.679870 -117.863568 336 60ft 0kts
07-Nov-18 15:38 33.679870 -117.863568 336 60ft 0kts
07-Nov-18 15:39 33.679870 -117.863568 336 60ft 0kts
07-Nov-18 15:40 33.674312 -117.868563 229 299ft 73kts
07-Nov-18 15:41 33.660442 -117.898503 241 824ft 117kts
07-Nov-18 15:42 33.644842 -117.933285 241 1324ft 119kts
07-Nov-18 15:43 33.630305 -117.965618 241 2159ft 108kts
07-Nov-18 15:44 33.623750 -117.999281 313 2740ft 114kts
07-Nov-18 15:45 33.654744 -117.994260 19 3014ft 127kts
07-Nov-18 15:46 33.687635 -117.979949 19 3011ft 120kts
07-Nov-18 15:47 33.717651 -117.966859 19 3011ft 119kts
07-Nov-18 15:48 33.747048 -117.954032 19 3011ft 120kts
07-Nov-18 15:49 33.776547 -117.941145 19 3011ft 120kts
07-Nov-18 15:50 33.806891 -117.927872 19 3010ft 120kts
07-Nov-18 15:51 33.837410 -117.914507 19 3010ft 120kts
07-Nov-18 15:52 33.866720 -117.897798 29 3008ft 120kts
07-Nov-18 15:53 33.895499 -117.877730 29 3008ft 120kts
07-Nov-18 15:54 33.924500 -117.857489 29 3008ft 120kts
07-Nov-18 15:55 33.946685 -117.829963 68 3169ft 106kts
07-Nov-18 15:56 33.948063 -117.797585 94 3862ft 104kts
07-Nov-18 15:57 33.944960 -117.760818 94 4088ft 124kts
07-Nov-18 15:58 33.942799 -117.718399 85 4014ft 125kts
07-Nov-18 15:59 33.947494 -117.676907 69 4014ft 125kts
07-Nov-18 16:00 33.968640 -117.645061 27 4017ft 125kts
07-Nov-18 16:01 34.001304 -117.638143 322 4015ft 125kts
07-Nov-18 16:02 33.993372 -117.674051 232 4014ft 125kts
07-Nov-18 16:03 33.971814 -117.706695 218 4015ft 125kts
07-Nov-18 16:04 33.940670 -117.725415 204 4015ft 125kts
07-Nov-18 16:05 33.908715 -117.740546 197 3867ft 132kts
07-Nov-18 16:06 33.872770 -117.754222 195 3448ft 134kts
07-Nov-18 16:07 33.840491 -117.766076 196 3388ft 130kts
07-Nov-18 16:08 33.808345 -117.783711 210 3307ft 116kts
07-Nov-18 16:09 33.782131 -117.802285 210 2757ft 122kts
07-Nov-18 16:10 33.760575 -117.816460 207 2279ft 77kts
07-Nov-18 16:11 33.739488 -117.828165 203 1471ft 84kts
07-Nov-18 16:12 33.719815 -117.840140 209 870ft 78kts
07-Nov-18 16:13 33.700552 -117.853101 204 549ft 89kts
07-Nov-18 16:14 33.681803 -117.864897 208 175ft 71kts
07-Nov-18 16:15 33.673200 -117.870431 210 60ft 8kts
07-Nov-18 16:16 33.670454 -117.872045 196 60ft 15kts
07-Nov-18 16:17 33.666601 -117.872807 199 60ft 0kts

Navigation Log

Ident Type
1. KSNA Airport
2. SLI Navaid
3. KSNA Airport